sensor_id;sensor_type;location;lat;lon;timestamp;pressure;altitude;pressure_sealevel;temperature;humidity
51972;BME280;37991;49.662;10.060;2022-08-21T00:01:59;99330.91;;;16.30;100.00
51972;BME280;37991;49.662;10.060;2022-08-21T00:04:24;99340.81;;;16.28;100.00
51972;BME280;37991;49.662;10.060;2022-08-21T00:06:51;99338.47;;;16.25;100.00
51972;BME280;37991;49.662;10.060;2022-08-21T00:09:17;99333.84;;;16.27;100.00
51972;BME280;37991;49.662;10.060;2022-08-21T00:11:42;99332.34;;;16.24;100.00
51972;BME280;37991;49.662;10.060;2022-08-21T00:14:09;99330.66;;;16.23;100.00
51972;BME280;37991;49.662;10.060;2022-08-21T00:16:35;99329.44;;;16.18;100.00
51972;BME280;37991;49.662;10.060;2022-08-21T00:19:00;99328.06;;;16.14;100.00
51972;BME280;37991;49.662;10.060;2022-08-21T00:21:25;99322.09;;;16.12;100.00
51972;BME280;37991;49.662;10.060;2022-08-21T00:23:51;99318.31;;;16.14;100.00
51972;BME280;37991;49.662;10.060;2022-08-21T00:26:17;99323.59;;;16.14;100.00
51972;BME280;37991;49.662;10.060;2022-08-21T00:28:42;99323.75;;;16.13;100.00
51972;BME280;37991;49.662;10.060;2022-08-21T00:31:08;99326.94;;;16.16;100.00
51972;BME280;37991;49.662;10.060;2022-08-21T00:33:33;99320.66;;;16.17;100.00
51972;BME280;37991;49.662;10.060;2022-08-21T00:35:59;99332.75;;;16.20;100.00
51972;BME280;37991;49.662;10.060;2022-08-21T00:38:24;99324.44;;;16.15;100.00
51972;BME280;37991;49.662;10.060;2022-08-21T00:40:53;99332.38;;;16.15;100.00
51972;BME280;37991;49.662;10.060;2022-08-21T00:43:24;99323.59;;;16.14;100.00
51972;BME280;37991;49.662;10.060;2022-08-21T00:45:50;99318.91;;;16.08;100.00
51972;BME280;37991;49.662;10.060;2022-08-21T00:48:16;99310.28;;;16.06;100.00
51972;BME280;37991;49.662;10.060;2022-08-21T00:50:48;99313.34;;;16.01;100.00
51972;BME280;37991;49.662;10.060;2022-08-21T00:53:16;99310.44;;;15.95;100.00
51972;BME280;37991;49.662;10.060;2022-08-21T00:55:41;99307.78;;;15.95;100.00
51972;BME280;37991;49.662;10.060;2022-08-21T00:58:09;99308.06;;;15.92;100.00
51972;BME280;37991;49.662;10.060;2022-08-21T01:00:38;99310.44;;;15.85;100.00
51972;BME280;37991;49.662;10.060;2022-08-21T01:03:11;99312.53;;;15.81;100.00
51972;BME280;37991;49.662;10.060;2022-08-21T01:05:37;99307.13;;;15.83;100.00
51972;BME280;37991;49.662;10.060;2022-08-21T01:08:03;99317.00;;;15.81;100.00
51972;BME280;37991;49.662;10.060;2022-08-21T01:10:30;99312.41;;;15.83;100.00
51972;BME280;37991;49.662;10.060;2022-08-21T01:12:55;99315.44;;;15.88;100.00
51972;BME280;37991;49.662;10.060;2022-08-21T01:15:24;99303.94;;;15.89;100.00
51972;BME280;37991;49.662;10.060;2022-08-21T01:17:52;99312.25;;;15.85;100.00
51972;BME280;37991;49.662;10.060;2022-08-21T01:20:18;99308.78;;;15.84;100.00
51972;BME280;37991;49.662;10.060;2022-08-21T01:22:44;99305.44;;;15.82;100.00
51972;BME280;37991;49.662;10.060;2022-08-21T01:25:13;99302.53;;;15.75;100.00
51972;BME280;37991;49.662;10.060;2022-08-21T01:27:40;99311.56;;;15.73;100.00
51972;BME280;37991;49.662;10.060;2022-08-21T01:30:18;99319.09;;;15.68;100.00
51972;BME280;37991;49.662;10.060;2022-08-21T01:32:44;99323.81;;;15.64;100.00
51972;BME280;37991;49.662;10.060;2022-08-21T01:35:13;99326.72;;;15.61;100.00
51972;BME280;37991;49.662;10.060;2022-08-21T01:37:39;99324.09;;;15.51;100.00
51972;BME280;37991;49.662;10.060;2022-08-21T01:40:06;99320.34;;;15.54;100.00
51972;BME280;37991;49.662;10.060;2022-08-21T01:42:32;99321.56;;;15.50;100.00
51972;BME280;37991;49.662;10.060;2022-08-21T01:44:57;99316.56;;;15.47;100.00
51972;BME280;37991;49.662;10.060;2022-08-21T01:47:23;99314.75;;;15.47;100.00
51972;BME280;37991;49.662;10.060;2022-08-21T01:49:48;99318.81;;;15.42;100.00
51972;BME280;37991;49.662;10.060;2022-08-21T01:52:14;99316.16;;;15.42;100.00
51972;BME280;37991;49.662;10.060;2022-08-21T01:54:40;99314.91;;;15.36;100.00
51972;BME280;37991;49.662;10.060;2022-08-21T01:57:05;99323.09;;;15.33;100.00
51972;BME280;37991;49.662;10.060;2022-08-21T01:59:31;99319.47;;;15.34;100.00
51972;BME280;37991;49.662;10.060;2022-08-21T02:01:56;99323.09;;;15.33;100.00
51972;BME280;37991;49.662;10.060;2022-08-21T02:04:22;99321.72;;;15.29;100.00
51972;BME280;37991;49.662;10.060;2022-08-21T02:06:48;99316.84;;;15.24;100.00
51972;BME280;37991;49.662;10.060;2022-08-21T02:09:14;99311.44;;;15.26;100.00
51972;BME280;37991;49.662;10.060;2022-08-21T02:11:42;99311.84;;;15.21;100.00
51972;BME280;37991;49.662;10.060;2022-08-21T02:14:12;99312.94;;;15.19;100.00
51972;BME280;37991;49.662;10.060;2022-08-21T02:16:40;99312.53;;;15.14;100.00
51972;BME280;37991;49.662;10.060;2022-08-21T02:19:07;99317.66;;;15.15;100.00
51972;BME280;37991;49.662;10.060;2022-08-21T02:21:32;99310.72;;;15.04;100.00
51972;BME280;37991;49.662;10.060;2022-08-21T02:23:58;99306.81;;;14.99;100.00
51972;BME280;37991;49.662;10.060;2022-08-21T02:26:24;99308.22;;;15.03;100.00
51972;BME280;37991;49.662;10.060;2022-08-21T02:28:51;99312.09;;;14.99;100.00
51972;BME280;37991;49.662;10.060;2022-08-21T02:31:16;99310.13;;;14.91;100.00
51972;BME280;37991;49.662;10.060;2022-08-21T02:33:42;99308.75;;;14.87;100.00
51972;BME280;37991;49.662;10.060;2022-08-21T02:36:08;99308.03;;;14.85;100.00
51972;BME280;37991;49.662;10.060;2022-08-21T02:38:35;99309.03;;;14.84;100.00
51972;BME280;37991;49.662;10.060;2022-08-21T02:41:10;99298.84;;;14.79;100.00
51972;BME280;37991;49.662;10.060;2022-08-21T02:43:36;99306.09;;;14.77;100.00
51972;BME280;37991;49.662;10.060;2022-08-21T02:46:04;99298.84;;;14.70;100.00
51972;BME280;37991;49.662;10.060;2022-08-21T02:48:31;99303.41;;;14.68;100.00
51972;BME280;37991;49.662;10.060;2022-08-21T02:51:05;99304.06;;;14.60;100.00
51972;BME280;37991;49.662;10.060;2022-08-21T02:53:32;99313.66;;;14.61;100.00
51972;BME280;37991;49.662;10.060;2022-08-21T02:55:59;99307.81;;;14.57;100.00
51972;BME280;37991;49.662;10.060;2022-08-21T02:58:35;99305.19;;;14.57;100.00
51972;BME280;37991;49.662;10.060;2022-08-21T03:01:00;99308.91;;;14.55;100.00
51972;BME280;37991;49.662;10.060;2022-08-21T03:03:26;99304.00;;;14.50;100.00
51972;BME280;37991;49.662;10.060;2022-08-21T03:05:52;99294.56;;;14.48;100.00
51972;BME280;37991;49.662;10.060;2022-08-21T03:08:19;99297.19;;;14.48;100.00
51972;BME280;37991;49.662;10.060;2022-08-21T03:10:47;99302.44;;;14.38;100.00
51972;BME280;37991;49.662;10.060;2022-08-21T03:13:14;99302.97;;;14.32;100.00
51972;BME280;37991;49.662;10.060;2022-08-21T03:15:40;99297.13;;;14.28;100.00
51972;BME280;37991;49.662;10.060;2022-08-21T03:18:06;99295.72;;;14.24;100.00
51972;BME280;37991;49.662;10.060;2022-08-21T03:20:32;99301.25;;;14.21;100.00
51972;BME280;37991;49.662;10.060;2022-08-21T03:22:58;99302.34;;;14.18;100.00
51972;BME280;37991;49.662;10.060;2022-08-21T03:25:26;99304.59;;;14.23;100.00
51972;BME280;37991;49.662;10.060;2022-08-21T03:27:52;99304.16;;;14.18;99.98
51972;BME280;37991;49.662;10.060;2022-08-21T03:30:19;99304.94;;;14.09;100.00
51972;BME280;37991;49.662;10.060;2022-08-21T03:32:46;99307.97;;;14.04;100.00
51972;BME280;37991;49.662;10.060;2022-08-21T03:35:12;99312.06;;;13.97;100.00
51972;BME280;37991;49.662;10.060;2022-08-21T03:37:38;99309.31;;;13.99;100.00
51972;BME280;37991;49.662;10.060;2022-08-21T03:40:05;99303.91;;;14.00;100.00
51972;BME280;37991;49.662;10.060;2022-08-21T03:42:31;99304.16;;;13.97;100.00
51972;BME280;37991;49.662;10.060;2022-08-21T03:44:56;99312.06;;;13.97;100.00
51972;BME280;37991;49.662;10.060;2022-08-21T03:47:22;99307.91;;;13.94;100.00
51972;BME280;37991;49.662;10.060;2022-08-21T03:49:48;99308.03;;;13.93;100.00
51972;BME280;37991;49.662;10.060;2022-08-21T03:52:13;99315.94;;;13.93;100.00
51972;BME280;37991;49.662;10.060;2022-08-21T03:54:39;99313.56;;;13.90;100.00
51972;BME280;37991;49.662;10.060;2022-08-21T03:57:06;99318.25;;;13.86;99.78
51972;BME280;37991;49.662;10.060;2022-08-21T03:59:31;99317.34;;;13.76;100.00
51972;BME280;37991;49.662;10.060;2022-08-21T04:01:59;99316.13;;;13.80;100.00
51972;BME280;37991;49.662;10.060;2022-08-21T04:04:26;99313.75;;;13.77;99.83
51972;BME280;37991;49.662;10.060;2022-08-21T04:06:52;99318.19;;;13.77;99.57
51972;BME280;37991;49.662;10.060;2022-08-21T04:09:18;99328.56;;;13.78;99.81
51972;BME280;37991;49.662;10.060;2022-08-21T04:11:44;99330.19;;;13.69;99.89
51972;BME280;37991;49.662;10.060;2022-08-21T04:14:11;99339.03;;;13.68;99.74
51972;BME280;37991;49.662;10.060;2022-08-21T04:16:36;99338.59;;;13.63;99.47
51972;BME280;37991;49.662;10.060;2022-08-21T04:19:02;99330.50;;;13.55;100.00
51972;BME280;37991;49.662;10.060;2022-08-21T04:21:27;99344.13;;;13.60;99.91
51972;BME280;37991;49.662;10.060;2022-08-21T04:23:56;99344.81;;;13.62;99.72
51972;BME280;37991;49.662;10.060;2022-08-21T04:26:22;99344.22;;;13.59;99.18
51972;BME280;37991;49.662;10.060;2022-08-21T04:28:48;99347.72;;;13.59;99.07
51972;BME280;37991;49.662;10.060;2022-08-21T04:31:13;99350.00;;;13.53;99.36
51972;BME280;37991;49.662;10.060;2022-08-21T04:33:38;99352.63;;;13.53;99.76
51972;BME280;37991;49.662;10.060;2022-08-21T04:36:04;99354.44;;;13.52;99.38
51972;BME280;37991;49.662;10.060;2022-08-21T04:38:30;99354.56;;;13.51;99.51
51972;BME280;37991;49.662;10.060;2022-08-21T04:40:56;99360.66;;;13.51;99.05
51972;BME280;37991;49.662;10.060;2022-08-21T04:43:22;99358.75;;;13.53;98.77
51972;BME280;37991;49.662;10.060;2022-08-21T04:45:50;99364.94;;;13.52;99.21
51972;BME280;37991;49.662;10.060;2022-08-21T04:48:17;99369.53;;;13.50;99.09
51972;BME280;37991;49.662;10.060;2022-08-21T04:50:52;99381.38;;;13.44;99.30
51972;BME280;37991;49.662;10.060;2022-08-21T04:53:23;99375.72;;;13.49;99.24
51972;BME280;37991;49.662;10.060;2022-08-21T04:55:50;99379.81;;;13.42;99.70
51972;BME280;37991;49.662;10.060;2022-08-21T04:58:18;99379.09;;;13.40;100.00
51972;BME280;37991;49.662;10.060;2022-08-21T05:00:46;99384.50;;;13.38;100.00
51972;BME280;37991;49.662;10.060;2022-08-21T05:03:13;99381.72;;;13.40;100.00
51972;BME280;37991;49.662;10.060;2022-08-21T05:05:41;99385.47;;;13.37;100.00
51972;BME280;37991;49.662;10.060;2022-08-21T05:08:11;99382.59;;;13.40;100.00
51972;BME280;37991;49.662;10.060;2022-08-21T05:10:37;99380.31;;;13.47;100.00
51972;BME280;37991;49.662;10.060;2022-08-21T05:13:03;99384.44;;;13.49;100.00
51972;BME280;37991;49.662;10.060;2022-08-21T05:15:29;99388.88;;;13.49;100.00
51972;BME280;37991;49.662;10.060;2022-08-21T05:17:55;99385.31;;;13.50;100.00
51972;BME280;37991;49.662;10.060;2022-08-21T05:20:21;99387.56;;;13.55;100.00
51972;BME280;37991;49.662;10.060;2022-08-21T05:22:46;99388.13;;;13.58;100.00
51972;BME280;37991;49.662;10.060;2022-08-21T05:25:11;99396.38;;;13.65;100.00
51972;BME280;37991;49.662;10.060;2022-08-21T05:27:37;99396.63;;;13.62;100.00
51972;BME280;37991;49.662;10.060;2022-08-21T05:30:04;99395.28;;;13.67;100.00
51972;BME280;37991;49.662;10.060;2022-08-21T05:32:30;99400.31;;;13.70;100.00
51972;BME280;37991;49.662;10.060;2022-08-21T05:34:55;99405.31;;;13.73;100.00
51972;BME280;37991;49.662;10.060;2022-08-21T05:37:21;99398.81;;;13.78;100.00
51972;BME280;37991;49.662;10.060;2022-08-21T05:39:46;99408.03;;;13.83;100.00
51972;BME280;37991;49.662;10.060;2022-08-21T05:42:12;99409.56;;;13.86;100.00
51972;BME280;37991;49.662;10.060;2022-08-21T05:44:37;99411.00;;;13.90;100.00
51972;BME280;37991;49.662;10.060;2022-08-21T05:47:04;99413.50;;;13.91;100.00
51972;BME280;37991;49.662;10.060;2022-08-21T05:49:30;99416.72;;;13.95;100.00
51972;BME280;37991;49.662;10.060;2022-08-21T05:51:55;99411.88;;;14.00;100.00
51972;BME280;37991;49.662;10.060;2022-08-21T05:54:20;99413.34;;;14.04;100.00
51972;BME280;37991;49.662;10.060;2022-08-21T05:56:46;99406.94;;;14.07;100.00
51972;BME280;37991;49.662;10.060;2022-08-21T05:59:11;99409.66;;;14.16;100.00
51972;BME280;37991;49.662;10.060;2022-08-21T06:01:38;99399.88;;;14.28;100.00
51972;BME280;37991;49.662;10.060;2022-08-21T06:04:03;99397.41;;;14.27;100.00
51972;BME280;37991;49.662;10.060;2022-08-21T06:06:29;99399.50;;;14.33;100.00
51972;BME280;37991;49.662;10.060;2022-08-21T06:08:55;99395.91;;;14.34;100.00
51972;BME280;37991;49.662;10.060;2022-08-21T06:11:20;99396.47;;;14.37;100.00
51972;BME280;37991;49.662;10.060;2022-08-21T06:13:45;99397.75;;;14.43;100.00
51972;BME280;37991;49.662;10.060;2022-08-21T06:16:13;99398.91;;;14.50;100.00
51972;BME280;37991;49.662;10.060;2022-08-21T06:18:39;99395.63;;;14.58;100.00
51972;BME280;37991;49.662;10.060;2022-08-21T06:21:05;99400.25;;;14.65;100.00
51972;BME280;37991;49.662;10.060;2022-08-21T06:23:31;99394.31;;;14.73;100.00
51972;BME280;37991;49.662;10.060;2022-08-21T06:25:57;99397.13;;;14.81;99.76
51972;BME280;37991;49.662;10.060;2022-08-21T06:28:22;99393.13;;;14.87;99.73
51972;BME280;37991;49.662;10.060;2022-08-21T06:30:48;99401.06;;;14.87;100.00
51972;BME280;37991;49.662;10.060;2022-08-21T06:33:13;99405.75;;;14.93;99.80
51972;BME280;37991;49.662;10.060;2022-08-21T06:35:38;99397.19;;;15.01;99.34
51972;BME280;37991;49.662;10.060;2022-08-21T06:38:04;99390.69;;;15.05;99.59
51972;BME280;37991;49.662;10.060;2022-08-21T06:40:30;99405.44;;;15.17;98.34
51972;BME280;37991;49.662;10.060;2022-08-21T06:43:08;99396.28;;;15.31;98.64
51972;BME280;37991;49.662;10.060;2022-08-21T06:45:34;99397.03;;;15.52;97.94
51972;BME280;37991;49.662;10.060;2022-08-21T06:47:59;99386.66;;;15.70;97.09
51972;BME280;37991;49.662;10.060;2022-08-21T06:50:24;99382.75;;;15.74;97.06
51972;BME280;37991;49.662;10.060;2022-08-21T06:52:58;99392.47;;;15.93;96.47
51972;BME280;37991;49.662;10.060;2022-08-21T06:55:24;99390.91;;;16.10;95.59
51972;BME280;37991;49.662;10.060;2022-08-21T06:57:49;99388.66;;;16.35;94.59
51972;BME280;37991;49.662;10.060;2022-08-21T07:00:15;99396.34;;;16.65;93.00
51972;BME280;37991;49.662;10.060;2022-08-21T07:02:40;99405.28;;;17.02;91.09
51972;BME280;37991;49.662;10.060;2022-08-21T07:05:06;99394.44;;;17.23;90.20
51972;BME280;37991;49.662;10.060;2022-08-21T07:07:31;99405.53;;;17.54;89.25
51972;BME280;37991;49.662;10.060;2022-08-21T07:09:57;99399.78;;;17.76;87.92
51972;BME280;37991;49.662;10.060;2022-08-21T07:12:22;99394.84;;;17.99;87.24
51972;BME280;37991;49.662;10.060;2022-08-21T07:14:48;99392.47;;;18.32;86.20
51972;BME280;37991;49.662;10.060;2022-08-21T07:17:13;99389.09;;;18.74;84.47
51972;BME280;37991;49.662;10.060;2022-08-21T07:19:39;99389.91;;;19.09;83.03
51972;BME280;37991;49.662;10.060;2022-08-21T07:22:04;99384.66;;;19.49;81.54
51972;BME280;37991;49.662;10.060;2022-08-21T07:24:29;99381.94;;;19.84;80.62
51972;BME280;37991;49.662;10.060;2022-08-21T07:26:55;99382.41;;;20.12;78.25
51972;BME280;37991;49.662;10.060;2022-08-21T07:29:21;99381.56;;;20.28;77.33
51972;BME280;37991;49.662;10.060;2022-08-21T07:31:46;99383.03;;;20.38;76.96
51972;BME280;37991;49.662;10.060;2022-08-21T07:34:12;99376.53;;;20.49;77.08
51972;BME280;37991;49.662;10.060;2022-08-21T07:36:37;99383.63;;;20.81;76.41
51972;BME280;37991;49.662;10.060;2022-08-21T07:39:02;99386.34;;;21.12;74.52
51972;BME280;37991;49.662;10.060;2022-08-21T07:41:28;99370.59;;;21.26;74.00
51972;BME280;37991;49.662;10.060;2022-08-21T07:43:57;99372.06;;;21.59;73.25
51972;BME280;37991;49.662;10.060;2022-08-21T07:46:24;99366.88;;;21.89;72.13
51972;BME280;37991;49.662;10.060;2022-08-21T07:48:49;99367.81;;;22.11;72.37
51972;BME280;37991;49.662;10.060;2022-08-21T07:51:16;99362.63;;;22.18;71.50
51972;BME280;37991;49.662;10.060;2022-08-21T07:53:47;99361.19;;;22.60;70.84
51972;BME280;37991;49.662;10.060;2022-08-21T07:56:13;99354.81;;;22.90;69.53
51972;BME280;37991;49.662;10.060;2022-08-21T07:58:38;99348.19;;;22.71;69.05
51972;BME280;37991;49.662;10.060;2022-08-21T08:01:05;99343.59;;;22.95;68.60
51972;BME280;37991;49.662;10.060;2022-08-21T08:03:31;99343.47;;;23.18;68.22
51972;BME280;37991;49.662;10.060;2022-08-21T08:05:56;99340.13;;;23.52;68.02
51972;BME280;37991;49.662;10.060;2022-08-21T08:08:23;99342.59;;;23.54;66.85
51972;BME280;37991;49.662;10.060;2022-08-21T08:10:48;99334.44;;;23.62;66.22
51972;BME280;37991;49.662;10.060;2022-08-21T08:13:15;99336.69;;;24.08;65.54
51972;BME280;37991;49.662;10.060;2022-08-21T08:15:40;99331.72;;;24.33;64.83
51972;BME280;37991;49.662;10.060;2022-08-21T08:18:05;99335.13;;;24.42;64.91
51972;BME280;37991;49.662;10.060;2022-08-21T08:20:31;99329.81;;;24.55;63.89
51972;BME280;37991;49.662;10.060;2022-08-21T08:22:56;99327.03;;;24.70;63.74
51972;BME280;37991;49.662;10.060;2022-08-21T08:25:23;99325.28;;;25.03;62.24
51972;BME280;37991;49.662;10.060;2022-08-21T08:27:49;99322.84;;;25.09;61.68
51972;BME280;37991;49.662;10.060;2022-08-21T08:30:16;99320.06;;;25.37;61.09
51972;BME280;37991;49.662;10.060;2022-08-21T08:32:43;99318.03;;;24.91;62.24
51972;BME280;37991;49.662;10.060;2022-08-21T08:35:10;99324.56;;;25.29;60.57
51972;BME280;37991;49.662;10.060;2022-08-21T08:37:37;99324.81;;;25.61;59.40
51972;BME280;37991;49.662;10.060;2022-08-21T08:40:06;99310.19;;;25.77;58.50
51972;BME280;37991;49.662;10.060;2022-08-21T08:42:34;99310.44;;;25.82;58.85
51972;BME280;37991;49.662;10.060;2022-08-21T08:45:05;99308.53;;;26.09;58.14
51972;BME280;37991;49.662;10.060;2022-08-21T08:47:34;99310.19;;;26.04;57.64
51972;BME280;37991;49.662;10.060;2022-08-21T08:50:08;99306.25;;;25.73;57.86
51972;BME280;37991;49.662;10.060;2022-08-21T08:52:40;99309.78;;;25.93;57.50
51972;BME280;37991;49.662;10.060;2022-08-21T08:55:17;99295.94;;;26.23;56.88
51972;BME280;37991;49.662;10.060;2022-08-21T08:57:45;99304.00;;;26.16;57.28
51972;BME280;37991;49.662;10.060;2022-08-21T09:00:14;99308.75;;;26.01;57.23
51972;BME280;37991;49.662;10.060;2022-08-21T09:02:41;99309.38;;;25.96;57.49
51972;BME280;37991;49.662;10.060;2022-08-21T09:05:09;99311.22;;;26.03;57.43
51972;BME280;37991;49.662;10.060;2022-08-21T09:10:48;99306.81;;;26.35;57.14
51972;BME280;37991;49.662;10.060;2022-08-21T09:13:24;99300.19;;;26.44;56.32
51972;BME280;37991;49.662;10.060;2022-08-21T09:16:00;99300.44;;;26.36;55.33
51972;BME280;37991;49.662;10.060;2022-08-21T09:18:37;99295.91;;;26.36;55.80
51972;BME280;37991;49.662;10.060;2022-08-21T09:21:35;99294.25;;;26.29;56.10
51972;BME280;37991;49.662;10.060;2022-08-21T09:26:45;99285.63;;;26.13;56.46
51972;BME280;37991;49.662;10.060;2022-08-21T09:29:14;99288.94;;;25.95;57.21
51972;BME280;37991;49.662;10.060;2022-08-21T09:31:42;99294.72;;;25.86;56.15
51972;BME280;37991;49.662;10.060;2022-08-21T09:34:10;99287.31;;;25.88;56.73
51972;BME280;37991;49.662;10.060;2022-08-21T09:36:42;99288.97;;;25.89;56.80
51972;BME280;37991;49.662;10.060;2022-08-21T09:39:10;99294.53;;;25.81;57.04
51972;BME280;37991;49.662;10.060;2022-08-21T09:41:37;99287.91;;;25.96;56.76
51972;BME280;37991;49.662;10.060;2022-08-21T09:44:04;99286.06;;;25.90;56.76
51972;BME280;37991;49.662;10.060;2022-08-21T09:46:30;99288.53;;;25.79;56.36
51972;BME280;37991;49.662;10.060;2022-08-21T09:48:58;99300.84;;;25.40;56.66
51972;BME280;37991;49.662;10.060;2022-08-21T09:51:26;99293.41;;;25.22;57.93
51972;BME280;37991;49.662;10.060;2022-08-21T09:54:14;99284.69;;;25.06;56.56
51972;BME280;37991;49.662;10.060;2022-08-21T09:56:59;99288.47;;;25.12;55.07
51972;BME280;37991;49.662;10.060;2022-08-21T09:59:45;99285.56;;;25.20;55.87
51972;BME280;37991;49.662;10.060;2022-08-21T10:02:34;99283.94;;;25.19;56.03
51972;BME280;37991;49.662;10.060;2022-08-21T10:05:15;99284.75;;;25.26;55.38
51972;BME280;37991;49.662;10.060;2022-08-21T10:07:40;99281.66;;;25.16;55.02
51972;BME280;37991;49.662;10.060;2022-08-21T10:10:13;99277.03;;;24.90;55.23
51972;BME280;37991;49.662;10.060;2022-08-21T10:12:55;99277.25;;;24.95;55.26
51972;BME280;37991;49.662;10.060;2022-08-21T10:15:42;99271.06;;;25.01;49.58
51972;BME280;37991;49.662;10.060;2022-08-21T10:18:20;99269.59;;;24.86;50.30
51972;BME280;37991;49.662;10.060;2022-08-21T10:20:58;99274.84;;;24.59;51.09
51972;BME280;37991;49.662;10.060;2022-08-21T10:32:02;99267.38;;;24.13;54.12
51972;BME280;37991;49.662;10.060;2022-08-21T10:34:47;99263.25;;;24.10;54.97
51972;BME280;37991;49.662;10.060;2022-08-21T10:40:25;99256.66;;;24.41;52.47
51972;BME280;37991;49.662;10.060;2022-08-21T10:45:32;99252.75;;;24.50;53.12
51972;BME280;37991;49.662;10.060;2022-08-21T10:48:06;99241.69;;;24.60;51.81
51972;BME280;37991;49.662;10.060;2022-08-21T10:50:44;99243.44;;;24.40;52.74
51972;BME280;37991;49.662;10.060;2022-08-21T10:54:15;99251.66;;;24.38;52.67
51972;BME280;37991;49.662;10.060;2022-08-21T10:56:25;99242.59;;;24.32;52.14
51972;BME280;37991;49.662;10.060;2022-08-21T11:02:02;99241.44;;;24.42;53.24
51972;BME280;37991;49.662;10.060;2022-08-21T11:04:37;99239.78;;;24.47;52.90
51972;BME280;37991;49.662;10.060;2022-08-21T11:07:08;99235.34;;;24.68;51.83
51972;BME280;37991;49.662;10.060;2022-08-21T11:09:36;99234.25;;;24.55;52.85
51972;BME280;37991;49.662;10.060;2022-08-21T11:12:12;99230.94;;;24.53;52.62
51972;BME280;37991;49.662;10.060;2022-08-21T11:17:13;99230.00;;;24.74;50.30
51972;BME280;37991;49.662;10.060;2022-08-21T11:19:50;99230.16;;;24.66;50.62
51972;BME280;37991;49.662;10.060;2022-08-21T11:27:49;99218.44;;;24.67;50.53
51972;BME280;37991;49.662;10.060;2022-08-21T11:30:16;99223.84;;;24.80;48.83
51972;BME280;37991;49.662;10.060;2022-08-21T11:43:40;99204.53;;;25.12;46.89
51972;BME280;37991;49.662;10.060;2022-08-21T11:46:28;99210.47;;;25.00;46.98
51972;BME280;37991;49.662;10.060;2022-08-21T11:49:05;99208.03;;;25.05;47.39
51972;BME280;37991;49.662;10.060;2022-08-21T11:51:38;99212.31;;;24.87;47.81
51972;BME280;37991;49.662;10.060;2022-08-21T11:54:27;99198.66;;;24.68;47.54
51972;BME280;37991;49.662;10.060;2022-08-21T11:57:08;99202.53;;;24.52;48.61
51972;BME280;37991;49.662;10.060;2022-08-21T12:00:05;99200.22;;;24.43;48.21
51972;BME280;37991;49.662;10.060;2022-08-21T12:02:42;99197.94;;;24.40;48.01
51972;BME280;37991;49.662;10.060;2022-08-21T12:05:22;99188.84;;;24.41;48.76
51972;BME280;37991;49.662;10.060;2022-08-21T12:08:00;99189.53;;;24.43;50.56
51972;BME280;37991;49.662;10.060;2022-08-21T12:10:36;99193.19;;;24.35;50.29
51972;BME280;37991;49.662;10.060;2022-08-21T12:13:26;99190.91;;;24.32;48.13
51972;BME280;37991;49.662;10.060;2022-08-21T12:15:52;99184.31;;;24.34;49.70
51972;BME280;37991;49.662;10.060;2022-08-21T12:18:29;99178.84;;;24.49;46.86
51972;BME280;37991;49.662;10.060;2022-08-21T12:23:59;99168.81;;;24.78;46.19
51972;BME280;37991;49.662;10.060;2022-08-21T12:26:47;99179.34;;;24.79;45.87
51972;BME280;37991;49.662;10.060;2022-08-21T12:29:22;99181.38;;;24.71;45.51
51972;BME280;37991;49.662;10.060;2022-08-21T12:34:50;99174.78;;;24.73;45.16
51972;BME280;37991;49.662;10.060;2022-08-21T12:37:43;99168.81;;;24.78;44.94
51972;BME280;37991;49.662;10.060;2022-08-21T12:40:40;99164.50;;;24.77;45.49
51972;BME280;37991;49.662;10.060;2022-08-21T12:43:13;99159.34;;;24.75;45.63
51972;BME280;37991;49.662;10.060;2022-08-21T12:45:46;99169.03;;;24.76;45.01
51972;BME280;37991;49.662;10.060;2022-08-21T12:48:33;99165.31;;;24.71;45.25
51972;BME280;37991;49.662;10.060;2022-08-21T12:51:10;99158.31;;;24.70;45.42
51972;BME280;37991;49.662;10.060;2022-08-21T12:53:49;99144.94;;;24.76;44.71
51972;BME280;37991;49.662;10.060;2022-08-21T12:56:23;99150.28;;;24.76;45.11
51972;BME280;37991;49.662;10.060;2022-08-21T12:58:55;99156.06;;;24.87;45.54
51972;BME280;37991;49.662;10.060;2022-08-21T13:01:29;99151.53;;;25.00;45.43
51972;BME280;37991;49.662;10.060;2022-08-21T13:03:58;99150.13;;;25.11;45.43
51972;BME280;37991;49.662;10.060;2022-08-21T13:06:29;99153.22;;;25.21;44.91
51972;BME280;37991;49.662;10.060;2022-08-21T13:08:59;99145.78;;;25.23;44.41
51972;BME280;37991;49.662;10.060;2022-08-21T13:11:28;99143.97;;;25.31;44.11
51972;BME280;37991;49.662;10.060;2022-08-21T13:13:54;99145.59;;;25.38;44.24
51972;BME280;37991;49.662;10.060;2022-08-21T13:16:26;99139.41;;;25.38;44.89
51972;BME280;37991;49.662;10.060;2022-08-21T13:19:19;99146.38;;;25.52;44.97
51972;BME280;37991;49.662;10.060;2022-08-21T13:21:45;99142.06;;;25.58;44.76
51972;BME280;37991;49.662;10.060;2022-08-21T13:24:25;99150.72;;;25.66;44.32
51972;BME280;37991;49.662;10.060;2022-08-21T13:26:52;99154.41;;;25.72;43.58
51972;BME280;37991;49.662;10.060;2022-08-21T13:29:22;99150.88;;;25.78;43.81
51972;BME280;37991;49.662;10.060;2022-08-21T13:31:54;99144.69;;;25.84;43.54
51972;BME280;37991;49.662;10.060;2022-08-21T13:34:22;99145.31;;;25.86;43.82
51972;BME280;37991;49.662;10.060;2022-08-21T13:36:51;99132.72;;;25.87;43.64
51972;BME280;37991;49.662;10.060;2022-08-21T13:39:19;99137.25;;;25.80;43.87
51972;BME280;37991;49.662;10.060;2022-08-21T13:41:48;99140.38;;;25.70;43.92
51972;BME280;37991;49.662;10.060;2022-08-21T13:44:33;99134.19;;;25.76;43.28